sensor_id;sensor_type;location;lat;lon;timestamp;pressure;altitude;pressure_sealevel;temperature;humidity
11268;BME280;49397;47.474;9.416;2023-01-10T00:02:13;95156.69;;;3.66;90.40
11268;BME280;49397;47.474;9.416;2023-01-10T00:04:39;95159.66;;;3.64;89.20
11268;BME280;49397;47.474;9.416;2023-01-10T00:07:04;95162.06;;;3.71;89.34
11268;BME280;49397;47.474;9.416;2023-01-10T00:09:30;95160.97;;;3.67;89.15
11268;BME280;49397;47.474;9.416;2023-01-10T00:11:55;95170.66;;;3.63;90.00
11268;BME280;49397;47.474;9.416;2023-01-10T00:14:39;95176.59;;;3.60;90.28
11268;BME280;49397;47.474;9.416;2023-01-10T00:17:05;95169.34;;;3.55;90.66
11268;BME280;49397;47.474;9.416;2023-01-10T00:19:30;95179.81;;;3.52;90.84
11268;BME280;49397;47.474;9.416;2023-01-10T00:21:56;95189.50;;;3.48;90.60
11268;BME280;49397;47.474;9.416;2023-01-10T00:24:22;95198.59;;;3.47;90.81
11268;BME280;49397;47.474;9.416;2023-01-10T00:26:49;95213.38;;;3.44;91.01
11268;BME280;49397;47.474;9.416;2023-01-10T00:29:17;95201.56;;;3.35;90.83
11268;BME280;49397;47.474;9.416;2023-01-10T00:31:43;95221.13;;;3.46;90.26
11268;BME280;49397;47.474;9.416;2023-01-10T00:34:08;95220.59;;;3.39;90.98
11268;BME280;49397;47.474;9.416;2023-01-10T00:36:34;95229.44;;;3.44;90.02
11268;BME280;49397;47.474;9.416;2023-01-10T00:38:59;95227.56;;;3.45;91.04
11268;BME280;49397;47.474;9.416;2023-01-10T00:41:25;95248.22;;;3.44;90.74
11268;BME280;49397;47.474;9.416;2023-01-10T00:44:09;95246.09;;;3.46;91.26
11268;BME280;49397;47.474;9.416;2023-01-10T00:46:34;95248.50;;;3.43;90.97
11268;BME280;49397;47.474;9.416;2023-01-10T00:49:00;95261.63;;;3.44;91.02
11268;BME280;49397;47.474;9.416;2023-01-10T00:51:31;95261.38;;;3.41;91.41
11268;BME280;49397;47.474;9.416;2023-01-10T00:53:56;95270.47;;;3.50;90.17
11268;BME280;49397;47.474;9.416;2023-01-10T00:56:22;95270.72;;;3.48;90.06
11268;BME280;49397;47.474;9.416;2023-01-10T00:58:47;95281.19;;;3.45;89.98
11268;BME280;49397;47.474;9.416;2023-01-10T01:01:13;95284.13;;;3.43;90.41
11268;BME280;49397;47.474;9.416;2023-01-10T01:03:38;95277.72;;;3.44;90.14
11268;BME280;49397;47.474;9.416;2023-01-10T01:06:05;95278.00;;;3.43;90.50
11268;BME280;49397;47.474;9.416;2023-01-10T01:08:31;95293.00;;;3.44;90.11
11268;BME280;49397;47.474;9.416;2023-01-10T01:10:56;95289.78;;;3.42;90.48
11268;BME280;49397;47.474;9.416;2023-01-10T01:13:22;95308.03;;;3.40;91.02
11268;BME280;49397;47.474;9.416;2023-01-10T01:15:48;95309.91;;;3.44;90.26
11268;BME280;49397;47.474;9.416;2023-01-10T01:18:20;95321.41;;;3.45;90.59
11268;BME280;49397;47.474;9.416;2023-01-10T01:20:46;95327.03;;;3.43;90.60
11268;BME280;49397;47.474;9.416;2023-01-10T01:23:15;95332.69;;;3.47;90.70
11268;BME280;49397;47.474;9.416;2023-01-10T01:25:41;95335.63;;;3.50;90.40
11268;BME280;49397;47.474;9.416;2023-01-10T01:28:09;95336.19;;;3.52;90.21
11268;BME280;49397;47.474;9.416;2023-01-10T01:30:35;95341.28;;;3.54;90.41
11268;BME280;49397;47.474;9.416;2023-01-10T01:33:00;95361.09;;;3.53;90.44
11268;BME280;49397;47.474;9.416;2023-01-10T01:35:26;95368.38;;;3.57;90.28
11268;BME280;49397;47.474;9.416;2023-01-10T01:37:51;95380.69;;;3.58;90.28
11268;BME280;49397;47.474;9.416;2023-01-10T01:40:19;95360.31;;;3.52;90.24
11268;BME280;49397;47.474;9.416;2023-01-10T01:42:46;95375.59;;;3.57;90.27
11268;BME280;49397;47.474;9.416;2023-01-10T01:45:38;95398.13;;;3.61;90.55
11268;BME280;49397;47.474;9.416;2023-01-10T01:48:15;95405.38;;;3.60;91.16
11268;BME280;49397;47.474;9.416;2023-01-10T01:53:42;95402.97;;;3.54;91.99
11268;BME280;49397;47.474;9.416;2023-01-10T01:56:20;95404.84;;;3.58;91.43
11268;BME280;49397;47.474;9.416;2023-01-10T01:58:53;95427.34;;;3.62;91.75
11268;BME280;49397;47.474;9.416;2023-01-10T02:01:20;95414.50;;;3.49;92.32
11268;BME280;49397;47.474;9.416;2023-01-10T02:03:50;95427.09;;;3.59;92.11
11268;BME280;49397;47.474;9.416;2023-01-10T02:06:17;95441.03;;;3.61;91.83
11268;BME280;49397;47.474;9.416;2023-01-10T02:08:51;95445.88;;;3.59;92.41
11268;BME280;49397;47.474;9.416;2023-01-10T02:11:17;95441.56;;;3.48;93.31
11268;BME280;49397;47.474;9.416;2023-01-10T02:13:44;95455.78;;;3.53;92.80
11268;BME280;49397;47.474;9.416;2023-01-10T02:16:10;95452.56;;;3.56;92.48
11268;BME280;49397;47.474;9.416;2023-01-10T02:18:37;95457.13;;;3.56;92.30
11268;BME280;49397;47.474;9.416;2023-01-10T02:32:08;95474.56;;;3.58;91.70
11268;BME280;49397;47.474;9.416;2023-01-10T02:34:48;95458.47;;;3.58;92.42
11268;BME280;49397;47.474;9.416;2023-01-10T02:37:24;95479.66;;;3.60;92.03
11268;BME280;49397;47.474;9.416;2023-01-10T02:40:18;95474.56;;;3.58;92.00
11268;BME280;49397;47.474;9.416;2023-01-10T02:43:28;95488.78;;;3.59;91.87
11268;BME280;49397;47.474;9.416;2023-01-10T02:45:58;95492.25;;;3.54;92.01
11268;BME280;49397;47.474;9.416;2023-01-10T02:48:25;95490.09;;;3.51;92.93
11268;BME280;49397;47.474;9.416;2023-01-10T02:51:02;95500.81;;;3.36;95.02
11268;BME280;49397;47.474;9.416;2023-01-10T02:53:35;95498.59;;;3.23;96.43
11268;BME280;49397;47.474;9.416;2023-01-10T02:59:25;95490.22;;;2.99;97.89
11268;BME280;49397;47.474;9.416;2023-01-10T03:04:53;95519.09;;;2.87;99.09
11268;BME280;49397;47.474;9.416;2023-01-10T03:07:33;95536.50;;;2.85;99.41
11268;BME280;49397;47.474;9.416;2023-01-10T03:10:09;95542.09;;;2.83;99.65
11268;BME280;49397;47.474;9.416;2023-01-10T03:12:41;95537.88;;;2.92;98.69
11268;BME280;49397;47.474;9.416;2023-01-10T03:15:12;95541.31;;;2.88;99.23
11268;BME280;49397;47.474;9.416;2023-01-10T03:17:40;95547.47;;;2.83;99.59
11268;BME280;49397;47.474;9.416;2023-01-10T03:20:08;95560.31;;;2.76;100.00
11268;BME280;49397;47.474;9.416;2023-01-10T03:22:36;95564.50;;;2.67;100.00
11268;BME280;49397;47.474;9.416;2023-01-10T03:25:06;95564.50;;;2.67;100.00
11268;BME280;49397;47.474;9.416;2023-01-10T03:30:51;95580.63;;;2.72;100.00
11268;BME280;49397;47.474;9.416;2023-01-10T03:33:23;95583.81;;;2.69;100.00
11268;BME280;49397;47.474;9.416;2023-01-10T03:35:57;95594.81;;;2.73;100.00
11268;BME280;49397;47.474;9.416;2023-01-10T03:41:31;95601.38;;;2.92;99.79
11268;BME280;49397;47.474;9.416;2023-01-10T03:44:11;95611.06;;;2.98;98.59
11268;BME280;49397;47.474;9.416;2023-01-10T03:49:26;95628.41;;;2.85;99.22
11268;BME280;49397;47.474;9.416;2023-01-10T03:51:52;95609.94;;;2.89;98.97
11268;BME280;49397;47.474;9.416;2023-01-10T03:54:19;95613.66;;;2.88;98.88
11268;BME280;49397;47.474;9.416;2023-01-10T03:56:45;95612.34;;;2.90;98.73
11268;BME280;49397;47.474;9.416;2023-01-10T03:59:11;95619.88;;;2.93;98.21
11268;BME280;49397;47.474;9.416;2023-01-10T04:01:37;95609.72;;;2.95;98.16
11268;BME280;49397;47.474;9.416;2023-01-10T04:04:02;95623.69;;;3.02;96.59
11268;BME280;49397;47.474;9.416;2023-01-10T04:06:29;95627.22;;;3.08;95.86
11268;BME280;49397;47.474;9.416;2023-01-10T04:08:54;95637.06;;;3.02;96.71
11268;BME280;49397;47.474;9.416;2023-01-10T04:11:20;95637.06;;;3.02;96.95
11268;BME280;49397;47.474;9.416;2023-01-10T04:13:45;95642.47;;;3.07;96.10
11268;BME280;49397;47.474;9.416;2023-01-10T04:16:11;95641.94;;;3.10;95.43
11268;BME280;49397;47.474;9.416;2023-01-10T04:18:36;95650.81;;;3.11;94.91
11268;BME280;49397;47.474;9.416;2023-01-10T04:21:02;95659.38;;;3.13;94.42
11268;BME280;49397;47.474;9.416;2023-01-10T04:23:27;95661.28;;;3.13;94.64
11268;BME280;49397;47.474;9.416;2023-01-10T04:25:53;95642.75;;;3.06;94.60
11268;BME280;49397;47.474;9.416;2023-01-10T04:28:18;95672.81;;;3.18;93.35
11268;BME280;49397;47.474;9.416;2023-01-10T04:30:44;95669.34;;;3.23;93.21
11268;BME280;49397;47.474;9.416;2023-01-10T04:33:09;95668.28;;;3.19;93.43
11268;BME280;49397;47.474;9.416;2023-01-10T04:35:35;95677.66;;;3.21;92.39
11268;BME280;49397;47.474;9.416;2023-01-10T04:38:01;95675.50;;;3.18;91.82
11268;BME280;49397;47.474;9.416;2023-01-10T04:40:26;95689.25;;;3.27;91.42
11268;BME280;49397;47.474;9.416;2023-01-10T04:42:52;95697.28;;;3.27;90.95
11268;BME280;49397;47.474;9.416;2023-01-10T04:45:17;95682.25;;;3.21;91.10
11268;BME280;49397;47.474;9.416;2023-01-10T04:47:49;95701.03;;;3.31;90.28
11268;BME280;49397;47.474;9.416;2023-01-10T04:50:15;95693.75;;;3.21;90.89
11268;BME280;49397;47.474;9.416;2023-01-10T04:52:41;95725.69;;;3.28;90.35
11268;BME280;49397;47.474;9.416;2023-01-10T04:55:08;95720.06;;;3.29;90.21
11268;BME280;49397;47.474;9.416;2023-01-10T04:57:34;95719.03;;;3.30;89.91
11268;BME280;49397;47.474;9.416;2023-01-10T04:59:59;95732.44;;;3.30;89.73
11268;BME280;49397;47.474;9.416;2023-01-10T05:02:25;95728.13;;;3.29;89.34
11268;BME280;49397;47.474;9.416;2023-01-10T05:04:50;95751.47;;;3.29;89.65
11268;BME280;49397;47.474;9.416;2023-01-10T05:07:16;95743.94;;;3.31;88.72
11268;BME280;49397;47.474;9.416;2023-01-10T05:09:41;95747.97;;;3.28;89.42
11268;BME280;49397;47.474;9.416;2023-01-10T05:12:08;95744.41;;;3.18;90.15
11268;BME280;49397;47.474;9.416;2023-01-10T05:14:33;95748.69;;;3.19;89.64
11268;BME280;49397;47.474;9.416;2023-01-10T05:16:59;95765.91;;;3.28;88.95
11268;BME280;49397;47.474;9.416;2023-01-10T05:19:24;95762.19;;;3.29;89.02
11268;BME280;49397;47.474;9.416;2023-01-10T05:21:50;95772.91;;;3.29;88.90
11268;BME280;49397;47.474;9.416;2023-01-10T05:24:16;95777.47;;;3.28;89.05
11268;BME280;49397;47.474;9.416;2023-01-10T05:26:42;95778.78;;;3.26;89.13
11268;BME280;49397;47.474;9.416;2023-01-10T05:29:11;95788.19;;;3.28;88.41
11268;BME280;49397;47.474;9.416;2023-01-10T05:31:36;95784.41;;;3.29;88.79
11268;BME280;49397;47.474;9.416;2023-01-10T05:34:02;95790.81;;;3.23;89.23
11268;BME280;49397;47.474;9.416;2023-01-10T05:36:27;95794.06;;;3.25;89.48
11268;BME280;49397;47.474;9.416;2023-01-10T05:38:53;95804.25;;;3.28;88.62
11268;BME280;49397;47.474;9.416;2023-01-10T05:41:18;95813.91;;;3.29;88.51
11268;BME280;49397;47.474;9.416;2023-01-10T05:43:44;95814.72;;;3.30;88.47
11268;BME280;49397;47.474;9.416;2023-01-10T05:46:09;95816.81;;;3.23;89.13
11268;BME280;49397;47.474;9.416;2023-01-10T05:48:35;95831.63;;;3.30;88.87
11268;BME280;49397;47.474;9.416;2023-01-10T05:51:00;95828.09;;;3.25;88.87
11268;BME280;49397;47.474;9.416;2023-01-10T05:53:26;95836.97;;;3.25;88.76
11268;BME280;49397;47.474;9.416;2023-01-10T05:55:57;95844.75;;;3.27;88.79
11268;BME280;49397;47.474;9.416;2023-01-10T05:58:24;95836.97;;;3.25;88.70
11268;BME280;49397;47.474;9.416;2023-01-10T06:00:49;95848.97;;;3.23;88.94
11268;BME280;49397;47.474;9.416;2023-01-10T06:03:15;95846.03;;;3.24;89.08
11268;BME280;49397;47.474;9.416;2023-01-10T06:05:41;95847.94;;;3.24;88.78
11268;BME280;49397;47.474;9.416;2023-01-10T06:08:06;95864.03;;;3.24;89.12
11268;BME280;49397;47.474;9.416;2023-01-10T06:10:32;95866.69;;;3.24;89.05
11268;BME280;49397;47.474;9.416;2023-01-10T06:12:57;95872.84;;;3.24;88.76
11268;BME280;49397;47.474;9.416;2023-01-10T06:15:23;95874.75;;;3.24;89.00
11268;BME280;49397;47.474;9.416;2023-01-10T06:17:48;95866.41;;;3.20;88.13
11268;BME280;49397;47.474;9.416;2023-01-10T06:20:14;95887.84;;;3.20;88.83
11268;BME280;49397;47.474;9.416;2023-01-10T06:22:40;95894.88;;;3.26;88.50
11268;BME280;49397;47.474;9.416;2023-01-10T06:25:07;95870.09;;;3.14;88.36
11268;BME280;49397;47.474;9.416;2023-01-10T06:27:33;95898.38;;;3.27;87.96
11268;BME280;49397;47.474;9.416;2023-01-10T06:29:59;95896.75;;;3.26;88.02
11268;BME280;49397;47.474;9.416;2023-01-10T06:32:26;95899.44;;;3.26;88.18
11268;BME280;49397;47.474;9.416;2023-01-10T06:34:52;95906.91;;;3.24;88.08
11268;BME280;49397;47.474;9.416;2023-01-10T06:37:18;95915.75;;;3.24;88.30
11268;BME280;49397;47.474;9.416;2023-01-10T06:39:43;95923.78;;;3.24;88.13
11268;BME280;49397;47.474;9.416;2023-01-10T06:42:11;95927.59;;;3.28;88.04
11268;BME280;49397;47.474;9.416;2023-01-10T06:44:36;95924.88;;;3.23;88.18
11268;BME280;49397;47.474;9.416;2023-01-10T06:47:02;95928.63;;;3.22;87.99
11268;BME280;49397;47.474;9.416;2023-01-10T06:49:27;95935.03;;;3.21;88.36
11268;BME280;49397;47.474;9.416;2023-01-10T06:51:54;95932.59;;;3.20;87.56
11268;BME280;49397;47.474;9.416;2023-01-10T06:54:19;95925.88;;;3.17;87.91
11268;BME280;49397;47.474;9.416;2023-01-10T06:56:46;95931.44;;;3.10;88.15
11268;BME280;49397;47.474;9.416;2023-01-10T06:59:12;95927.16;;;3.09;87.99
11268;BME280;49397;47.474;9.416;2023-01-10T07:01:38;95934.06;;;3.05;88.39
11268;BME280;49397;47.474;9.416;2023-01-10T07:04:03;95945.84;;;3.04;88.03
11268;BME280;49397;47.474;9.416;2023-01-10T07:06:29;95943.41;;;3.03;88.36
11268;BME280;49397;47.474;9.416;2023-01-10T07:08:55;95954.06;;;2.98;88.52
11268;BME280;49397;47.474;9.416;2023-01-10T07:11:21;95940.03;;;2.91;88.00
11268;BME280;49397;47.474;9.416;2023-01-10T07:13:46;95941.63;;;2.87;88.44
11268;BME280;49397;47.474;9.416;2023-01-10T07:16:14;95958.63;;;2.97;87.99
11268;BME280;49397;47.474;9.416;2023-01-10T07:18:41;95960.78;;;3.00;87.56
11268;BME280;49397;47.474;9.416;2023-01-10T07:21:08;95976.88;;;3.00;87.21
11268;BME280;49397;47.474;9.416;2023-01-10T07:23:33;95971.56;;;3.05;87.26
11268;BME280;49397;47.474;9.416;2023-01-10T07:26:04;95982.81;;;3.02;86.86
11268;BME280;49397;47.474;9.416;2023-01-10T07:28:30;95983.94;;;3.06;86.43
11268;BME280;49397;47.474;9.416;2023-01-10T07:31:04;95999.03;;;3.13;85.72
11268;BME280;49397;47.474;9.416;2023-01-10T07:33:30;95999.34;;;3.16;85.83
11268;BME280;49397;47.474;9.416;2023-01-10T07:35:56;96008.41;;;3.15;86.15
11268;BME280;49397;47.474;9.416;2023-01-10T07:38:22;96007.13;;;3.18;86.53
11268;BME280;49397;47.474;9.416;2023-01-10T07:40:48;96009.56;;;3.19;86.07
11268;BME280;49397;47.474;9.416;2023-01-10T07:43:14;96020.81;;;3.21;85.70
11268;BME280;49397;47.474;9.416;2023-01-10T07:45:39;96029.19;;;3.25;84.82
11268;BME280;49397;47.474;9.416;2023-01-10T07:48:05;96024.38;;;3.27;84.53
11268;BME280;49397;47.474;9.416;2023-01-10T07:50:33;96034.84;;;3.28;83.82
11268;BME280;49397;47.474;9.416;2023-01-10T07:53:00;96038.63;;;3.32;83.91
11268;BME280;49397;47.474;9.416;2023-01-10T07:55:27;96037.28;;;3.30;84.21
11268;BME280;49397;47.474;9.416;2023-01-10T07:57:52;96036.22;;;3.31;84.09
11268;BME280;49397;47.474;9.416;2023-01-10T08:00:18;96046.44;;;3.34;83.60
11268;BME280;49397;47.474;9.416;2023-01-10T08:02:44;96052.94;;;3.38;83.68
11268;BME280;49397;47.474;9.416;2023-01-10T08:05:10;96024.69;;;3.30;83.65
11268;BME280;49397;47.474;9.416;2023-01-10T08:07:36;96043.28;;;3.37;83.57
11268;BME280;49397;47.474;9.416;2023-01-10T08:10:06;96043.56;;;3.40;83.23
11268;BME280;49397;47.474;9.416;2023-01-10T08:12:32;96053.53;;;3.45;82.24
11268;BME280;49397;47.474;9.416;2023-01-10T08:14:57;96065.16;;;3.50;82.59
11268;BME280;49397;47.474;9.416;2023-01-10T08:17:23;96070.50;;;3.50;82.55
11268;BME280;49397;47.474;9.416;2023-01-10T08:19:49;96079.13;;;3.52;82.06
11268;BME280;49397;47.474;9.416;2023-01-10T08:22:14;96063.53;;;3.49;82.47
11268;BME280;49397;47.474;9.416;2023-01-10T08:24:40;96079.72;;;3.59;81.69
11268;BME280;49397;47.474;9.416;2023-01-10T08:27:05;96083.47;;;3.58;81.58
11268;BME280;49397;47.474;9.416;2023-01-10T08:29:31;96081.91;;;3.62;81.00
11268;BME280;49397;47.474;9.416;2023-01-10T08:31:56;96085.72;;;3.66;81.71
11268;BME280;49397;47.474;9.416;2023-01-10T08:34:22;96098.31;;;3.66;80.69
11268;BME280;49397;47.474;9.416;2023-01-10T08:36:49;96101.31;;;3.69;80.91
11268;BME280;49397;47.474;9.416;2023-01-10T08:39:15;96105.59;;;3.70;80.77
11268;BME280;49397;47.474;9.416;2023-01-10T08:41:40;96114.22;;;3.72;81.51
11268;BME280;49397;47.474;9.416;2023-01-10T08:44:06;96134.94;;;3.77;81.07
11268;BME280;49397;47.474;9.416;2023-01-10T08:46:31;96110.72;;;3.72;80.59
11268;BME280;49397;47.474;9.416;2023-01-10T08:48:57;96120.50;;;3.83;80.80
11268;BME280;49397;47.474;9.416;2023-01-10T08:51:22;96115.72;;;3.85;80.05
11268;BME280;49397;47.474;9.416;2023-01-10T08:53:48;96117.94;;;3.93;79.23
11268;BME280;49397;47.474;9.416;2023-01-10T08:56:13;96127.91;;;3.97;79.25
11268;BME280;49397;47.474;9.416;2023-01-10T08:58:38;96126.63;;;4.00;78.18
11268;BME280;49397;47.474;9.416;2023-01-10T09:01:07;96115.38;;;4.03;78.40
11268;BME280;49397;47.474;9.416;2023-01-10T09:03:33;96118.34;;;4.06;78.36
11268;BME280;49397;47.474;9.416;2023-01-10T09:06:00;96125.53;;;4.27;78.40
11268;BME280;49397;47.474;9.416;2023-01-10T09:08:26;96134.41;;;4.28;78.56
11268;BME280;49397;47.474;9.416;2023-01-10T09:10:52;96130.06;;;4.22;77.50
11268;BME280;49397;47.474;9.416;2023-01-10T09:13:18;96151.13;;;4.35;79.38
11268;BME280;49397;47.474;9.416;2023-01-10T09:15:43;96144.09;;;4.29;77.29
11268;BME280;49397;47.474;9.416;2023-01-10T09:18:11;96142.78;;;4.31;77.65
11268;BME280;49397;47.474;9.416;2023-01-10T09:20:39;96142.56;;;4.38;77.85
11268;BME280;49397;47.474;9.416;2023-01-10T09:23:06;96149.81;;;4.37;77.76
11268;BME280;49397;47.474;9.416;2023-01-10T09:25:33;96156.75;;;4.33;77.72
11268;BME280;49397;47.474;9.416;2023-01-10T09:28:00;96149.16;;;4.25;78.02
11268;BME280;49397;47.474;9.416;2023-01-10T09:30:27;96158.34;;;4.29;78.29
11268;BME280;49397;47.474;9.416;2023-01-10T09:32:54;96175.00;;;4.31;78.68
11268;BME280;49397;47.474;9.416;2023-01-10T09:35:21;96164.72;;;4.23;79.04
11268;BME280;49397;47.474;9.416;2023-01-10T09:37:46;96181.19;;;4.32;78.72
11268;BME280;49397;47.474;9.416;2023-01-10T09:40:15;96168.78;;;4.26;78.23
11268;BME280;49397;47.474;9.416;2023-01-10T09:45:45;96180.78;;;4.18;78.29
11268;BME280;49397;47.474;9.416;2023-01-10T09:48:20;96188.91;;;4.23;78.33
11268;BME280;49397;47.474;9.416;2023-01-10T09:51:17;96192.69;;;4.27;78.21
11268;BME280;49397;47.474;9.416;2023-01-10T09:53:45;96189.28;;;4.37;78.22
11268;BME280;49397;47.474;9.416;2023-01-10T09:56:13;96185.06;;;4.46;77.80
11268;BME280;49397;47.474;9.416;2023-01-10T09:58:41;96171.38;;;4.47;77.95
11268;BME280;49397;47.474;9.416;2023-01-10T10:01:34;96191.63;;;4.55;77.62
11268;BME280;49397;47.474;9.416;2023-01-10T10:06:38;96194.59;;;4.58;77.29
11268;BME280;49397;47.474;9.416;2023-01-10T10:09:04;96191.03;;;4.80;78.76
11268;BME280;49397;47.474;9.416;2023-01-10T10:11:39;96196.94;;;4.77;75.48
11268;BME280;49397;47.474;9.416;2023-01-10T10:22:33;96189.47;;;4.57;76.53
11268;BME280;49397;47.474;9.416;2023-01-10T10:25:38;96191.63;;;4.55;77.09
11268;BME280;49397;47.474;9.416;2023-01-10T10:28:33;96195.47;;;4.64;77.56
11268;BME280;49397;47.474;9.416;2023-01-10T10:31:32;96191.75;;;4.70;75.17
11268;BME280;49397;47.474;9.416;2023-01-10T10:36:50;96184.59;;;4.81;75.28
11268;BME280;49397;47.474;9.416;2023-01-10T10:39:21;96189.47;;;5.20;73.65
11268;BME280;49397;47.474;9.416;2023-01-10T10:41:50;96175.97;;;5.57;72.72
11268;BME280;49397;47.474;9.416;2023-01-10T10:45:35;96165.75;;;5.54;72.69
11268;BME280;49397;47.474;9.416;2023-01-10T10:47:44;96159.91;;;5.72;71.06
11268;BME280;49397;47.474;9.416;2023-01-10T10:52:48;96137.81;;;5.65;67.91
11268;BME280;49397;47.474;9.416;2023-01-10T10:55:16;96152.03;;;5.55;69.42
11268;BME280;49397;47.474;9.416;2023-01-10T10:57:44;96164.91;;;5.48;67.98
11268;BME280;49397;47.474;9.416;2023-01-10T11:00:16;96161.25;;;5.69;68.50
11268;BME280;49397;47.474;9.416;2023-01-10T11:05:39;96154.66;;;5.40;68.28
11268;BME280;49397;47.474;9.416;2023-01-10T11:08:09;96156.66;;;5.18;68.54
11268;BME280;49397;47.474;9.416;2023-01-10T11:10:37;96158.88;;;4.90;69.65
11268;BME280;49397;47.474;9.416;2023-01-10T11:13:28;96153.06;;;5.08;69.79
11268;BME280;49397;47.474;9.416;2023-01-10T11:15:55;96147.66;;;5.03;70.91
11268;BME280;49397;47.474;9.416;2023-01-10T11:18:28;96163.72;;;4.93;69.40
11268;BME280;49397;47.474;9.416;2023-01-10T11:26:04;96151.41;;;5.38;68.11
11268;BME280;49397;47.474;9.416;2023-01-10T11:28:32;96173.09;;;5.27;68.39
11268;BME280;49397;47.474;9.416;2023-01-10T11:30:58;96162.56;;;5.20;69.24
11268;BME280;49397;47.474;9.416;2023-01-10T11:33:30;96162.03;;;5.23;67.66
11268;BME280;49397;47.474;9.416;2023-01-10T11:36:13;96161.47;;;5.16;68.72
11268;BME280;49397;47.474;9.416;2023-01-10T11:38:40;96158.22;;;5.14;67.03
11268;BME280;49397;47.474;9.416;2023-01-10T11:41:22;96160.44;;;5.22;67.50
11268;BME280;49397;47.474;9.416;2023-01-10T11:43:49;96163.13;;;5.22;65.58
11268;BME280;49397;47.474;9.416;2023-01-10T11:48:49;96161.03;;;5.34;66.16
11268;BME280;49397;47.474;9.416;2023-01-10T11:51:27;96159.13;;;5.30;64.99
11268;BME280;49397;47.474;9.416;2023-01-10T11:54:09;96157.44;;;5.14;65.41
11268;BME280;49397;47.474;9.416;2023-01-10T11:56:37;96151.81;;;5.20;65.92
11268;BME280;49397;47.474;9.416;2023-01-10T11:59:10;96161.25;;;5.23;65.41
11268;BME280;49397;47.474;9.416;2023-01-10T12:01:47;96150.81;;;5.26;65.87
11268;BME280;49397;47.474;9.416;2023-01-10T12:04:19;96151.06;;;5.30;65.49
11268;BME280;49397;47.474;9.416;2023-01-10T12:06:47;96139.00;;;5.32;66.04
11268;BME280;49397;47.474;9.416;2023-01-10T12:09:33;96146.28;;;5.37;65.86
11268;BME280;49397;47.474;9.416;2023-01-10T12:14:48;96146.81;;;5.34;64.57
11268;BME280;49397;47.474;9.416;2023-01-10T12:19:43;96144.63;;;5.31;64.10
11268;BME280;49397;47.474;9.416;2023-01-10T12:22:10;96134.41;;;5.28;64.99
11268;BME280;49397;47.474;9.416;2023-01-10T12:24:39;96141.19;;;5.40;65.39
11268;BME280;49397;47.474;9.416;2023-01-10T12:27:12;96141.22;;;5.50;64.92
11268;BME280;49397;47.474;9.416;2023-01-10T12:32:25;96133.72;;;5.52;65.69
11268;BME280;49397;47.474;9.416;2023-01-10T12:35:02;96132.88;;;5.47;64.86
11268;BME280;49397;47.474;9.416;2023-01-10T12:40:20;96142.34;;;5.54;65.00
11268;BME280;49397;47.474;9.416;2023-01-10T12:42:54;96148.22;;;5.46;65.68
11268;BME280;49397;47.474;9.416;2023-01-10T12:46:04;96139.03;;;5.42;65.78
11268;BME280;49397;47.474;9.416;2023-01-10T12:48:44;96140.13;;;5.46;64.93
11268;BME280;49397;47.474;9.416;2023-01-10T12:51:14;96131.47;;;5.39;65.16
11268;BME280;49397;47.474;9.416;2023-01-10T12:54:11;96134.78;;;5.51;65.90
11268;BME280;49397;47.474;9.416;2023-01-10T12:56:39;96136.91;;;5.49;64.37
11268;BME280;49397;47.474;9.416;2023-01-10T12:59:37;96138.28;;;5.52;64.33
11268;BME280;49397;47.474;9.416;2023-01-10T13:02:08;96130.81;;;5.64;64.43
11268;BME280;49397;47.474;9.416;2023-01-10T13:04:40;96117.66;;;5.77;64.81
11268;BME280;49397;47.474;9.416;2023-01-10T13:07:09;96125.03;;;5.92;63.83
11268;BME280;49397;47.474;9.416;2023-01-10T13:09:36;96118.31;;;5.99;61.77
11268;BME280;49397;47.474;9.416;2023-01-10T13:14:54;96103.31;;;6.54;60.11
11268;BME280;49397;47.474;9.416;2023-01-10T13:22:50;96095.75;;;6.46;58.10
11268;BME280;49397;47.474;9.416;2023-01-10T13:27:54;96095.78;;;6.56;58.04
11268;BME280;49397;47.474;9.416;2023-01-10T13:30:26;96088.22;;;6.53;56.80
11268;BME280;49397;47.474;9.416;2023-01-10T13:35:42;96100.91;;;6.62;58.50
11268;BME280;49397;47.474;9.416;2023-01-10T13:38:21;96096.31;;;6.43;58.73
11268;BME280;49397;47.474;9.416;2023-01-10T13:41:05;96089.53;;;6.25;58.25
11268;BME280;49397;47.474;9.416;2023-01-10T13:43:37;96100.31;;;6.25;58.36
11268;BME280;49397;47.474;9.416;2023-01-10T13:51:20;96087.69;;;6.86;57.81
11268;BME280;49397;47.474;9.416;2023-01-10T13:53:53;96092.75;;;7.07;56.99
11268;BME280;49397;47.474;9.416;2023-01-10T13:56:33;96077.34;;;7.33;56.78
11268;BME280;49397;47.474;9.416;2023-01-10T13:59:00;96084.31;;;7.49;56.76
11268;BME280;49397;47.474;9.416;2023-01-10T14:01:50;96086.44;;;7.57;55.67
11268;BME280;49397;47.474;9.416;2023-01-10T14:04:48;96098.34;;;7.46;54.89
11268;BME280;49397;47.474;9.416;2023-01-10T14:09:49;96082.81;;;6.63;57.88
11268;BME280;49397;47.474;9.416;2023-01-10T14:14:57;96080.91;;;6.13;58.37
11268;BME280;49397;47.474;9.416;2023-01-10T14:17:28;96100.03;;;6.22;59.28
11268;BME280;49397;47.474;9.416;2023-01-10T14:22:39;96088.19;;;6.18;58.24
11268;BME280;49397;47.474;9.416;2023-01-10T14:25:18;96076.34;;;6.34;58.68
11268;BME280;49397;47.474;9.416;2023-01-10T14:27:45;96071.47;;;6.96;57.20
11268;BME280;49397;47.474;9.416;2023-01-10T14:30:18;96071.03;;;7.52;55.90
11268;BME280;49397;47.474;9.416;2023-01-10T14:32:47;96071.97;;;7.87;53.99
11268;BME280;49397;47.474;9.416;2023-01-10T14:35:23;96072.56;;;7.73;54.05
11268;BME280;49397;47.474;9.416;2023-01-10T14:37:55;96072.84;;;7.72;54.23
11268;BME280;49397;47.474;9.416;2023-01-10T14:40:27;96073.28;;;7.94;53.91
11268;BME280;49397;47.474;9.416;2023-01-10T14:42:54;96066.03;;;7.90;52.90
11268;BME280;49397;47.474;9.416;2023-01-10T14:47:58;96074.31;;;8.03;53.93
11268;BME280;49397;47.474;9.416;2023-01-10T14:50:29;96057.50;;;8.11;54.60
11268;BME280;49397;47.474;9.416;2023-01-10T14:52:57;96069.69;;;8.09;52.66
11268;BME280;49397;47.474;9.416;2023-01-10T14:55:24;96081.09;;;8.01;52.62
11268;BME280;49397;47.474;9.416;2023-01-10T15:00:24;96077.09;;;7.93;54.30
11268;BME280;49397;47.474;9.416;2023-01-10T15:02:50;96065.03;;;7.70;55.15
11268;BME280;49397;47.474;9.416;2023-01-10T15:05:27;96076.22;;;7.44;56.26